Lingfield, United Kingdom
Current Conditions -  °F | °C
As of 5:20 PM on Wednesday 26 Nov 2014 (Local Time) from EGKK Reporting Station
Haze Haze  
Wind Chill: 46°   Ceiling: 200
Heat Index: 48°   Visibility: 0.93mi
Dew Point: 48°   Wind: 5mph
Humidity: 100%   Direction: 50°NE
Pressure: 29.8"   Gusts: NA
Location:  51.17°N, 0.01°W
Report Text: EGKK 261720Z 05004KT 1500 BR BKN002 09/09 Q1009
Loading
Personal Weather Stations






























Interactive Weather Map New forecast layout! Learn more

10-Day Weather Forecast

Advertisements
Track Severe Weather on mobile